Time;durP1;ratioP1;P1;durP2;ratioP2;P2;SDS_P1;SDS_P2;PMS_P1;PMS_P2;Temp;Humidity;BMP_temperature;BMP_pressure;BME280_temperature;BME280_humidity;BME280_pressure;Samples;Min_cycle;Max_cycle;Signal;HPM_P1;HPM_P2
2021/03/07 00:00:43;;;;;;;2.47;2.27;;;19.10;20.50;;;;;;5073175;28;20167;-60
2021/03/07 00:03:08;;;;;;;2.23;2.03;;;19.10;20.50;;;;;;5073158;28;20651;-60
2021/03/07 00:05:34;;;;;;;2.30;2.10;;;19.10;20.50;;;;;;5073086;28;20159;-59
2021/03/07 00:08:00;;;;;;;2.50;2.30;;;19.10;20.50;;;;;;5072674;28;20162;-60
2021/03/07 00:10:28;;;;;;;2.07;1.87;;;19.10;20.50;;;;;;5072939;28;20166;-60
2021/03/07 00:12:54;;;;;;;2.70;2.40;;;19.10;20.50;;;;;;5072991;28;20189;-59
2021/03/07 00:15:20;;;;;;;2.33;2.07;;;19.00;20.40;;;;;;5072887;28;20222;-58
2021/03/07 00:17:47;;;;;;;2.22;2.03;;;19.00;20.40;;;;;;5074319;28;20231;-59
2021/03/07 00:20:15;;;;;;;2.28;1.90;;;19.00;20.40;;;;;;5076626;28;20296;-59
2021/03/07 00:22:41;;;;;;;2.35;2.15;;;19.00;20.40;;;;;;5075223;28;20617;-59
2021/03/07 00:25:09;;;;;;;2.45;2.25;;;19.00;20.40;;;;;;5075868;28;20248;-60
2021/03/07 00:27:36;;;;;;;2.42;2.22;;;19.00;20.50;;;;;;5075283;28;20293;-59
2021/03/07 00:30:05;;;;;;;2.22;2.03;;;19.00;20.50;;;;;;5076526;28;20308;-59
2021/03/07 00:32:31;;;;;;;2.53;2.33;;;19.00;20.50;;;;;;5076548;28;20598;-59
2021/03/07 00:34:59;;;;;;;2.30;2.10;;;19.00;20.50;;;;;;5076357;28;20206;-59
2021/03/07 00:37:25;;;;;;;2.30;2.05;;;19.00;20.50;;;;;;5076487;28;20166;-59
2021/03/07 00:39:50;;;;;;;2.80;2.40;;;19.00;20.50;;;;;;5075812;28;20155;-60
2021/03/07 00:42:16;;;;;;;2.30;2.10;;;19.00;20.50;;;;;;5076296;28;20197;-60
2021/03/07 00:44:42;;;;;;;2.17;1.87;;;19.00;20.50;;;;;;5076147;28;20189;-60
2021/03/07 00:47:07;;;;;;;1.90;1.80;;;18.90;20.40;;;;;;5076306;28;20521;-59
2021/03/07 00:49:36;;;;;;;2.43;2.23;;;18.90;20.50;;;;;;5076099;28;20587;-59
2021/03/07 00:52:01;;;;;;;2.20;2.00;;;18.90;20.50;;;;;;5075049;28;20596;-59
2021/03/07 00:54:27;;;;;;;2.37;2.17;;;18.90;20.50;;;;;;5075486;28;20288;-60
2021/03/07 00:56:53;;;;;;;2.13;2.00;;;19.00;20.60;;;;;;5076344;28;20602;-60
2021/03/07 00:59:19;;;;;;;2.20;2.00;;;18.90;20.50;;;;;;5075829;28;20162;-59
2021/03/07 01:01:45;;;;;;;2.30;2.10;;;18.90;20.50;;;;;;5075912;28;20626;-60
2021/03/07 01:04:10;;;;;;;1.83;1.73;;;18.90;20.50;;;;;;5075850;28;20174;-59
2021/03/07 01:06:36;;;;;;;2.60;2.00;;;18.90;20.50;;;;;;5075795;28;20189;-59
2021/03/07 01:09:05;;;;;;;2.20;2.00;;;18.90;20.50;;;;;;5075426;28;20162;-59
2021/03/07 01:11:31;;;;;;;2.40;2.20;;;18.90;20.50;;;;;;5075757;28;20162;-59
2021/03/07 01:13:59;;;;;;;2.33;2.13;;;18.90;20.50;;;;;;5075627;28;20151;-59
2021/03/07 01:16:28;;;;;;;2.13;1.95;;;18.90;20.50;;;;;;5075866;28;20465;-59
2021/03/07 01:18:56;;;;;;;3.25;2.20;;;18.90;20.50;;;;;;5075510;28;20204;-61
2021/03/07 01:21:22;;;;;;;2.15;2.03;;;18.80;20.50;;;;;;5075817;28;20155;-59
2021/03/07 01:23:48;;;;;;;2.73;2.43;;;18.80;20.50;;;;;;5074753;28;20656;-59
2021/03/07 01:26:13;;;;;;;2.60;2.40;;;18.90;20.50;;;;;;5075985;28;20194;-59
2021/03/07 01:28:42;;;;;;;2.63;2.07;;;18.80;20.50;;;;;;5075182;28;20165;-60
2021/03/07 01:31:08;;;;;;;2.08;1.88;;;18.90;20.50;;;;;;5075348;28;20186;-60
2021/03/07 01:33:34;;;;;;;2.23;1.80;;;18.90;20.50;;;;;;5075138;28;20641;-60
2021/03/07 01:36:02;;;;;;;2.30;2.10;;;18.80;20.50;;;;;;5075333;28;20772;-59
2021/03/07 01:38:33;;;;;;;2.25;2.05;;;18.80;20.50;;;;;;5074510;28;20200;-59
2021/03/07 01:40:59;;;;;;;3.05;2.25;;;18.80;20.50;;;;;;5075312;28;20155;-59
2021/03/07 01:43:28;;;;;;;2.17;2.08;;;18.80;20.50;;;;;;5073621;28;20521;-59
2021/03/07 01:45:55;;;;;;;2.47;2.28;;;18.80;21.10;;;;;;5075114;28;20170;-61
2021/03/07 01:48:20;;;;;;;2.97;2.70;;;18.80;20.50;;;;;;5074932;28;20189;-59
2021/03/07 01:50:51;;;;;;;2.47;2.27;;;18.80;20.50;;;;;;5074916;28;20609;-59
2021/03/07 01:53:19;;;;;;;2.40;2.20;;;18.80;20.50;;;;;;5074450;28;20569;-60
2021/03/07 01:55:50;;;;;;;2.28;1.60;;;18.80;20.50;;;;;;5074830;28;20235;-59
2021/03/07 01:58:22;;;;;;;1.90;1.80;;;18.80;20.50;;;;;;5074897;28;20158;-60
2021/03/07 02:00:48;;;;;;;1.80;1.70;;;18.80;20.50;;;;;;5074808;28;20146;-60
2021/03/07 02:03:14;;;;;;;2.23;2.03;;;18.80;20.50;;;;;;5074568;28;20632;-60
2021/03/07 02:05:43;;;;;;;2.75;2.33;;;18.80;20.50;;;;;;5074772;28;20158;-60
2021/03/07 02:08:09;;;;;;;3.50;2.22;;;18.80;20.50;;;;;;5074045;28;20154;-59
2021/03/07 02:10:39;;;;;;;2.33;2.13;;;18.80;21.10;;;;;;5074872;28;20167;-60
2021/03/07 02:13:16;;;;;;;2.47;2.28;;;18.70;20.50;;;;;;5074462;28;20636;-60
2021/03/07 02:15:47;;;;;;;1.70;1.52;;;18.70;20.50;;;;;;5074262;28;20214;-59
2021/03/07 02:18:14;;;;;;;2.47;2.13;;;18.70;20.50;;;;;;5073104;28;20526;-59
2021/03/07 02:21:03;;;;;;;2.00;1.80;;;18.70;20.50;;;;;;5074352;28;20158;-59
2021/03/07 02:23:39;;;;;;;2.60;2.40;;;18.70;20.50;;;;;;5073321;28;20236;-60
2021/03/07 02:26:05;;;;;;;2.00;1.90;;;18.70;20.50;;;;;;5074563;28;20150;-59
2021/03/07 02:28:31;;;;;;;1.93;1.83;;;18.70;20.50;;;;;;5074333;28;20158;-58
2021/03/07 02:30:57;;;;;;;1.97;1.87;;;18.70;20.50;;;;;;5074340;28;20708;-59
2021/03/07 02:33:33;;;;;;;2.30;1.92;;;18.70;20.50;;;;;;5072618;28;20582;-59
2021/03/07 02:36:05;;;;;;;2.38;2.17;;;18.70;20.50;;;;;;5074098;28;20182;-59
2021/03/07 02:38:36;;;;;;;2.25;2.05;;;18.70;20.50;;;;;;5073656;28;20581;-59
2021/03/07 02:41:02;;;;;;;2.10;1.90;;;18.70;20.50;;;;;;5073649;28;20158;-59
2021/03/07 02:43:36;;;;;;;2.07;1.93;;;18.70;20.50;;;;;;5074002;28;20155;-60
2021/03/07 02:46:03;;;;;;;2.40;2.20;;;18.70;20.50;;;;;;5074059;28;20446;-59
2021/03/07 02:48:30;;;;;;;2.15;1.90;;;18.70;20.50;;;;;;5073604;28;20178;-59
2021/03/07 02:51:01;;;;;;;1.88;1.60;;;18.70;20.50;;;;;;5073912;28;20162;-61
2021/03/07 02:53:33;;;;;;;2.10;1.88;;;18.70;20.50;;;;;;5073373;28;20181;-60
2021/03/07 02:56:08;;;;;;;2.15;1.92;;;18.70;20.50;;;;;;5074147;28;20186;-58
2021/03/07 02:58:39;;;;;;;2.60;2.33;;;18.60;20.50;;;;;;5072476;28;20158;-58
2021/03/07 03:01:10;;;;;;;2.08;1.85;;;18.70;20.60;;;;;;5073902;28;20142;-59
2021/03/07 03:03:40;;;;;;;2.00;1.90;;;18.70;20.60;;;;;;5073492;28;20146;-59
2021/03/07 03:06:09;;;;;;;2.25;2.05;;;18.60;20.50;;;;;;5073701;28;20195;-60
2021/03/07 03:08:37;;;;;;;2.00;1.90;;;18.70;20.60;;;;;;5073095;28;20235;-60
2021/03/07 03:11:04;;;;;;;1.50;1.40;;;18.60;20.50;;;;;;5073804;28;20161;-59
2021/03/07 03:13:33;;;;;;;1.90;1.80;;;18.60;20.50;;;;;;5073679;28;20154;-60
2021/03/07 03:16:00;;;;;;;1.80;1.70;;;18.60;20.50;;;;;;5073482;28;20251;-59
2021/03/07 03:18:31;;;;;;;2.20;2.00;;;18.60;20.50;;;;;;5073510;28;20158;-59
2021/03/07 03:21:04;;;;;;;2.00;1.67;;;18.60;20.50;;;;;;5073780;28;20178;-59
2021/03/07 03:23:29;;;;;;;2.20;2.00;;;18.60;20.60;;;;;;5072804;28;20155;-59
2021/03/07 03:25:59;;;;;;;2.63;2.43;;;18.60;20.50;;;;;;5073588;28;20177;-59
2021/03/07 03:28:25;;;;;;;2.17;1.98;;;18.60;20.50;;;;;;5073496;28;20175;-58
2021/03/07 03:30:52;;;;;;;1.83;1.73;;;18.60;20.50;;;;;;5073834;28;20158;-59
2021/03/07 03:33:18;;;;;;;2.60;2.40;;;18.60;20.50;;;;;;5073277;28;20730;-59
2021/03/07 03:35:44;;;;;;;1.90;1.80;;;18.60;20.50;;;;;;5073349;28;20205;-59
2021/03/07 03:38:09;;;;;;;2.30;2.10;;;18.60;20.50;;;;;;5073000;28;20162;-60
2021/03/07 03:40:36;;;;;;;2.10;1.90;;;18.60;20.50;;;;;;5073443;28;20189;-59
2021/03/07 03:43:09;;;;;;;2.25;1.95;;;18.60;20.50;;;;;;5073475;28;20197;-59
2021/03/07 03:46:00;;;;;;;2.30;2.10;;;18.60;20.60;;;;;;5073334;28;20196;-59
2021/03/07 03:48:30;;;;;;;2.28;2.08;;;18.60;20.60;;;;;;5073165;28;20159;-58
2021/03/07 03:50:59;;;;;;;1.80;1.67;;;18.60;20.60;;;;;;5073367;28;20190;-60
2021/03/07 03:53:25;;;;;;;4.13;1.92;;;18.60;20.60;;;;;;5076778;28;20162;-60
2021/03/07 03:55:53;;;;;;;1.90;1.80;;;18.60;20.60;;;;;;5077158;28;20194;-60
2021/03/07 03:58:26;;;;;;;2.30;2.20;;;18.60;20.60;;;;;;5077226;28;20269;-60
2021/03/07 04:01:01;;;;;;;3.00;2.33;;;18.50;20.50;;;;;;5077323;28;20157;-60
2021/03/07 04:03:29;;;;;;;2.15;1.95;;;18.60;20.60;;;;;;5076834;28;20150;-58
2021/03/07 04:05:57;;;;;;;2.10;1.80;;;18.60;20.60;;;;;;5077164;28;20165;-59
2021/03/07 04:08:23;;;;;;;2.80;2.35;;;18.60;20.60;;;;;;5076496;28;20285;-60
2021/03/07 04:10:51;;;;;;;2.10;1.92;;;18.60;20.60;;;;;;5076873;28;20147;-59
2021/03/07 04:13:22;;;;;;;2.03;1.92;;;18.50;20.50;;;;;;5076856;28;20155;-60
2021/03/07 04:15:57;;;;;;;2.22;1.98;;;18.50;20.50;;;;;;5076629;28;20245;-59
2021/03/07 04:18:26;;;;;;;1.77;1.67;;;18.50;20.50;;;;;;5076732;28;20165;-59
2021/03/07 04:20:53;;;;;;;2.17;1.95;;;18.50;20.50;;;;;;5077015;28;20189;-59
2021/03/07 04:23:19;;;;;;;4.13;1.77;;;18.50;20.50;;;;;;5078746;28;20165;-59
2021/03/07 04:25:48;;;;;;;1.80;1.70;;;18.50;20.50;;;;;;5096831;28;20186;-59
2021/03/07 04:28:16;;;;;;;2.67;2.47;;;18.50;20.50;;;;;;5096792;28;20154;-59
2021/03/07 04:30:42;;;;;;;2.03;1.83;;;18.50;20.50;;;;;;5096774;28;20158;-59
2021/03/07 04:33:08;;;;;;;1.80;1.63;;;18.50;20.50;;;;;;5078541;28;20207;-59
2021/03/07 04:35:34;;;;;;;1.83;1.70;;;18.50;20.50;;;;;;5096528;28;20197;-59
2021/03/07 04:38:05;;;;;;;2.27;2.07;;;18.50;20.60;;;;;;5096271;28;20392;-60
2021/03/07 04:40:34;;;;;;;1.90;1.80;;;18.50;20.50;;;;;;5096644;28;20362;-60
2021/03/07 04:43:01;;;;;;;1.70;1.60;;;18.50;20.60;;;;;;5096510;28;20150;-60
2021/03/07 04:45:30;;;;;;;2.20;2.00;;;18.50;20.50;;;;;;5096334;28;20169;-60
2021/03/07 04:48:00;;;;;;;1.85;1.75;;;18.50;20.50;;;;;;5096341;28;20165;-60
2021/03/07 04:50:28;;;;;;;3.00;2.30;;;18.50;20.50;;;;;;5096495;28;20229;-60
2021/03/07 04:52:54;;;;;;;1.98;1.80;;;18.50;20.60;;;;;;5096412;28;20169;-60
2021/03/07 04:55:19;;;;;;;1.60;1.50;;;18.40;20.40;;;;;;5096084;28;20194;-60
2021/03/07 04:57:45;;;;;;;1.93;1.83;;;18.40;20.50;;;;;;5096222;28;20821;-60
2021/03/07 05:00:13;;;;;;;1.90;1.40;;;18.40;20.50;;;;;;5096072;28;20609;-60
2021/03/07 05:02:39;;;;;;;2.17;1.98;;;18.50;20.60;;;;;;5095846;28;20245;-60
2021/03/07 05:05:06;;;;;;;2.23;1.77;;;18.40;20.50;;;;;;5095496;28;20663;-60
2021/03/07 05:07:32;;;;;;;3.13;2.35;;;18.50;20.50;;;;;;5096106;28;20601;-60
2021/03/07 05:09:58;;;;;;;2.10;1.90;;;18.40;20.50;;;;;;5095577;28;20165;-60
2021/03/07 05:12:23;;;;;;;1.87;1.77;;;18.50;20.60;;;;;;5096125;28;20404;-59
2021/03/07 05:14:51;;;;;;;2.47;1.77;;;18.50;20.60;;;;;;5095429;28;20343;-59
2021/03/07 05:17:17;;;;;;;1.98;1.80;;;18.40;20.50;;;;;;5095760;28;20589;-60
2021/03/07 05:19:43;;;;;;;2.00;1.90;;;18.50;20.60;;;;;;5077395;28;20595;-60
2021/03/07 05:22:09;;;;;;;2.20;2.00;;;18.40;20.50;;;;;;5095861;28;20241;-60
2021/03/07 05:24:36;;;;;;;2.50;2.30;;;18.40;20.50;;;;;;5095084;28;20265;-60
2021/03/07 05:27:06;;;;;;;2.20;2.00;;;18.40;20.50;;;;;;5095823;28;20154;-60
2021/03/07 05:29:35;;;;;;;2.33;2.13;;;18.40;20.50;;;;;;5115830;28;20581;-60
2021/03/07 05:32:01;;;;;;;2.20;2.00;;;18.40;20.50;;;;;;5116245;28;20168;-59
2021/03/07 05:34:30;;;;;;;2.10;1.90;;;18.40;20.50;;;;;;5115744;28;20162;-59
2021/03/07 05:36:56;;;;;;;1.70;1.60;;;18.40;20.50;;;;;;5116169;28;20198;-61
2021/03/07 05:39:23;;;;;;;1.80;1.60;;;18.40;20.50;;;;;;5115490;28;20153;-60
2021/03/07 05:41:49;;;;;;;1.67;1.58;;;18.40;20.50;;;;;;5097430;28;20169;-59
2021/03/07 05:44:15;;;;;;;2.45;2.08;;;18.40;20.50;;;;;;5115739;28;20191;-59
2021/03/07 05:46:41;;;;;;;1.70;1.60;;;18.40;20.50;;;;;;5115738;28;20193;-58
2021/03/07 05:49:07;;;;;;;1.90;1.70;;;18.40;20.50;;;;;;5115736;28;20238;-59
2021/03/07 05:51:41;;;;;;;1.50;1.40;;;18.40;20.50;;;;;;5115563;28;20234;-60
2021/03/07 05:54:07;;;;;;;2.08;1.88;;;18.40;20.50;;;;;;5115125;28;20160;-60
2021/03/07 05:56:33;;;;;;;1.50;1.40;;;18.40;20.50;;;;;;5115601;28;20689;-59
2021/03/07 05:58:59;;;;;;;2.10;1.93;;;18.40;20.50;;;;;;5115418;28;20158;-59
2021/03/07 06:01:24;;;;;;;1.70;1.60;;;18.40;20.50;;;;;;5115757;28;20161;-59
2021/03/07 06:03:50;;;;;;;1.67;1.57;;;18.40;20.50;;;;;;5115221;28;20298;-60
2021/03/07 06:06:16;;;;;;;2.27;1.67;;;18.30;20.50;;;;;;5115409;28;20630;-59
2021/03/07 06:08:44;;;;;;;2.33;1.93;;;18.30;20.40;;;;;;5114737;28;20244;-60
2021/03/07 06:11:32;;;;;;;1.98;1.80;;;18.40;20.50;;;;;;5115192;28;20376;-58
2021/03/07 06:14:00;;;;;;;2.20;2.00;;;18.40;20.50;;;;;;5114984;28;20161;-60
2021/03/07 06:16:25;;;;;;;2.17;1.98;;;18.40;20.50;;;;;;5114019;28;20192;-60
2021/03/07 06:18:51;;;;;;;1.53;1.40;;;18.30;21.00;;;;;;5114997;28;20504;-60
2021/03/07 06:21:34;;;;;;;1.90;1.80;;;18.40;20.40;;;;;;5115367;28;20149;-60
2021/03/07 06:24:03;;;;;;;1.60;1.50;;;18.40;20.40;;;;;;5114574;28;20917;-59
2021/03/07 06:26:31;;;;;;;1.90;1.80;;;18.30;20.40;;;;;;5114882;28;20264;-60
2021/03/07 06:29:11;;;;;;;1.95;1.77;;;18.30;20.40;;;;;;5114650;28;20153;-60
2021/03/07 06:31:40;;;;;;;2.38;2.13;;;18.40;20.40;;;;;;5114767;28;20152;-60
2021/03/07 06:34:05;;;;;;;1.85;1.75;;;18.40;20.40;;;;;;5114720;28;20160;-60
2021/03/07 06:36:31;;;;;;;2.03;1.83;;;18.40;20.40;;;;;;5114826;28;20192;-60
2021/03/07 06:38:59;;;;;;;1.87;1.77;;;18.40;20.40;;;;;;5114320;28;20189;-60
2021/03/07 06:41:30;;;;;;;1.73;1.63;;;18.40;20.40;;;;;;5114754;28;20149;-60
2021/03/07 06:44:17;;;;;;;2.40;2.20;;;18.40;20.40;;;;;;5114664;28;20149;-60
2021/03/07 06:46:47;;;;;;;1.50;1.40;;;18.40;20.40;;;;;;5114721;28;20167;-60
2021/03/07 06:49:24;;;;;;;1.88;1.77;;;18.30;20.30;;;;;;5114503;28;20171;-60
2021/03/07 06:52:00;;;;;;;2.53;2.33;;;18.40;20.30;;;;;;5114629;28;20152;-60
2021/03/07 06:54:29;;;;;;;2.00;1.52;;;18.40;20.30;;;;;;5113870;28;20635;-60
2021/03/07 06:56:55;;;;;;;1.90;1.80;;;18.40;20.30;;;;;;5114470;28;20599;-60
2021/03/07 06:59:24;;;;;;;1.87;1.77;;;18.40;20.90;;;;;;5114409;28;20160;-60
2021/03/07 07:01:50;;;;;;;1.70;1.60;;;18.40;20.30;;;;;;5114386;28;20427;-60
2021/03/07 07:04:17;;;;;;;1.70;1.60;;;18.40;20.30;;;;;;5114292;28;20153;-60
2021/03/07 07:06:59;;;;;;;1.75;1.65;;;18.40;20.30;;;;;;5114373;28;20181;-60
2021/03/07 07:09:28;;;;;;;1.90;1.80;;;18.40;20.30;;;;;;5113857;28;20153;-60
2021/03/07 07:11:56;;;;;;;1.80;1.55;;;18.40;20.30;;;;;;5114256;28;20156;-60
2021/03/07 07:14:41;;;;;;;1.80;1.70;;;18.40;20.20;;;;;;5113934;28;20267;-59
2021/03/07 07:17:15;;;;;;;2.00;1.80;;;18.40;20.20;;;;;;5114198;28;20593;-60
2021/03/07 07:19:45;;;;;;;2.15;1.95;;;18.40;20.20;;;;;;5113924;28;20600;-60
2021/03/07 07:22:14;;;;;;;2.15;1.85;;;18.40;20.10;;;;;;5114229;28;20188;-60
2021/03/07 07:24:44;;;;;;;2.10;1.90;;;18.40;20.10;;;;;;5113487;28;20251;-60
2021/03/07 07:27:13;;;;;;;1.65;1.55;;;18.50;20.30;;;;;;5113876;28;20626;-60
2021/03/07 07:29:39;;;;;;;1.98;1.77;;;18.40;20.10;;;;;;5113968;28;20158;-60
2021/03/07 07:32:11;;;;;;;1.63;1.52;;;18.40;20.10;;;;;;5113914;28;20191;-60
2021/03/07 07:34:44;;;;;;;1.90;1.80;;;18.50;20.10;;;;;;5113783;28;20157;-60
2021/03/07 07:37:23;;;;;;;2.22;2.00;;;18.50;20.10;;;;;;5114054;28;20150;-60
2021/03/07 07:39:51;;;;;;;1.83;1.73;;;18.50;20.10;;;;;;5113349;28;20153;-60
2021/03/07 07:42:31;;;;;;;1.90;1.80;;;18.50;20.10;;;;;;5114013;28;20203;-60
2021/03/07 07:45:16;;;;;;;1.95;1.65;;;18.50;20.10;;;;;;5113877;28;20197;-60
2021/03/07 07:47:43;;;;;;;1.88;1.75;;;18.40;20.00;;;;;;5113889;28;20257;-59
2021/03/07 07:50:27;;;;;;;1.73;1.63;;;18.50;20.00;;;;;;5113807;28;20165;-60
2021/03/07 07:52:53;;;;;;;1.80;1.67;;;18.50;20.00;;;;;;5114104;28;20180;-60
2021/03/07 07:55:39;;;;;;;2.00;1.80;;;18.50;20.00;;;;;;5113145;28;20628;-60
2021/03/07 07:58:04;;;;;;;2.83;1.90;;;18.60;20.00;;;;;;5095188;28;20400;-60
2021/03/07 08:01:00;;;;;;;1.63;1.53;;;18.50;19.90;;;;;;5095522;28;20169;-59
2021/03/07 08:03:55;;;;;;;1.80;1.70;;;18.60;19.90;;;;;;5096448;28;20185;-59
2021/03/07 08:06:23;;;;;;;1.77;1.67;;;18.60;19.90;;;;;;5096191;28;20647;-60
2021/03/07 08:08:49;;;;;;;1.48;1.38;;;18.60;19.90;;;;;;5112889;28;20149;-60
2021/03/07 08:11:18;;;;;;;2.05;1.85;;;18.60;19.90;;;;;;5113729;28;20222;-60
2021/03/07 08:13:59;;;;;;;4.10;1.90;;;18.60;19.80;;;;;;5113544;28;20153;-60
2021/03/07 08:16:36;;;;;;;1.85;1.35;;;18.60;19.80;;;;;;5113455;28;20185;-60
2021/03/07 08:19:03;;;;;;;1.63;1.52;;;18.60;19.80;;;;;;5113612;28;20147;-60
2021/03/07 08:21:49;;;;;;;1.85;1.75;;;18.60;19.80;;;;;;5113551;28;20236;-60
2021/03/07 08:24:14;;;;;;;1.98;1.88;;;18.60;19.80;;;;;;5112715;28;20173;-59
2021/03/07 08:26:43;;;;;;;2.07;1.83;;;18.60;19.70;;;;;;5095431;28;20653;-59
2021/03/07 08:29:41;;;;;;;1.92;1.70;;;18.60;19.70;;;;;;5113384;28;20160;-60
2021/03/07 08:32:36;;;;;;;1.60;1.50;;;18.70;19.70;;;;;;5113425;28;20164;-60
2021/03/07 08:35:20;;;;;;;1.90;1.70;;;18.70;19.60;;;;;;5113601;28;20509;-60
2021/03/07 08:38:14;;;;;;;2.10;1.90;;;18.70;19.50;;;;;;5113162;28;20165;-60
2021/03/07 08:40:54;;;;;;;2.22;2.03;;;18.70;19.50;;;;;;5117084;28;20153;-60
2021/03/07 08:43:25;;;;;;;1.90;1.80;;;18.70;19.40;;;;;;5117066;28;20161;-60
2021/03/07 08:46:03;;;;;;;1.70;1.60;;;18.70;19.30;;;;;;5116934;28;20481;-59
2021/03/07 08:48:30;;;;;;;2.20;2.00;;;18.80;19.40;;;;;;5116787;28;20202;-59
2021/03/07 08:50:57;;;;;;;1.70;1.60;;;18.80;19.40;;;;;;5117040;28;20252;-59
2021/03/07 08:53:24;;;;;;;1.70;1.60;;;18.80;19.40;;;;;;5116334;28;20161;-59
2021/03/07 08:55:50;;;;;;;2.05;1.88;;;18.80;19.40;;;;;;5116849;28;20639;-60
2021/03/07 08:58:20;;;;;;;2.73;1.60;;;18.90;19.50;;;;;;5116900;28;20161;-59
2021/03/07 09:00:47;;;;;;;1.60;1.50;;;19.00;19.60;;;;;;5116981;28;20466;-59
2021/03/07 09:03:17;;;;;;;1.60;1.50;;;19.10;19.60;;;;;;5116521;28;20252;-59
2021/03/07 09:05:43;;;;;;;2.00;1.80;;;19.10;19.30;;;;;;5116512;28;20556;-60
2021/03/07 09:08:11;;;;;;;1.80;1.67;;;19.30;19.30;;;;;;5116005;28;20188;-59
2021/03/07 09:10:45;;;;;;;2.17;1.98;;;19.40;19.20;;;;;;5116440;28;20165;-59
2021/03/07 09:13:14;;;;;;;1.92;1.80;;;19.60;18.90;;;;;;5116368;28;20164;-58
2021/03/07 09:15:54;;;;;;;1.77;1.67;;;19.80;18.60;;;;;;5116151;28;20298;-59
2021/03/07 09:18:39;;;;;;;1.73;1.63;;;19.90;18.30;;;;;;5116259;28;20176;-59
2021/03/07 09:21:16;;;;;;;1.85;1.75;;;20.00;18.30;;;;;;5116104;28;20161;-59
2021/03/07 09:23:46;;;;;;;2.05;1.48;;;20.20;18.20;;;;;;5115426;28;20209;-60
2021/03/07 09:26:16;;;;;;;1.90;1.70;;;20.40;18.00;;;;;;5116056;28;20164;-59
2021/03/07 09:28:47;;;;;;;1.92;1.80;;;20.50;17.70;;;;;;5116104;28;20161;-58
2021/03/07 09:31:20;;;;;;;1.70;1.60;;;20.50;18.00;;;;;;5116119;28;20163;-60
2021/03/07 09:33:48;;;;;;;2.10;1.92;;;20.60;17.40;;;;;;5116079;28;20183;-59
2021/03/07 09:36:14;;;;;;;1.58;1.48;;;20.60;17.20;;;;;;5116043;28;20643;-59
2021/03/07 09:38:41;;;;;;;2.08;1.90;;;20.70;17.20;;;;;;5115287;28;20157;-59
2021/03/07 09:41:08;;;;;;;1.90;1.80;;;20.70;17.10;;;;;;5116049;28;20194;-59
2021/03/07 09:43:34;;;;;;;2.30;2.10;;;20.70;17.20;;;;;;5115723;28;20149;-59
2021/03/07 09:46:03;;;;;;;1.90;1.80;;;20.80;17.20;;;;;;5115711;28;20248;-59
2021/03/07 09:48:38;;;;;;;2.20;2.00;;;20.90;17.40;;;;;;5115523;28;20438;-60
2021/03/07 09:51:05;;;;;;;1.90;1.70;;;21.10;17.50;;;;;;5115366;28;20175;-60
2021/03/07 09:53:35;;;;;;;2.08;1.88;;;21.20;17.10;;;;;;5115061;28;20260;-60
2021/03/07 09:56:03;;;;;;;1.88;1.77;;;21.30;16.90;;;;;;5115536;28;20217;-60
2021/03/07 09:58:36;;;;;;;1.90;1.80;;;21.40;16.60;;;;;;5115544;28;20154;-60
2021/03/07 10:01:06;;;;;;;2.05;1.85;;;21.40;16.50;;;;;;5115650;28;20153;-61
2021/03/07 10:03:34;;;;;;;2.45;2.08;;;21.50;17.20;;;;;;5115256;28;20660;-60
2021/03/07 10:06:10;;;;;;;2.40;2.00;;;21.50;16.60;;;;;;5115585;28;20612;-61
2021/03/07 10:08:37;;;;;;;1.90;1.70;;;21.60;16.30;;;;;;5114792;28;20159;-59
2021/03/07 10:11:23;;;;;;;1.65;1.55;;;21.80;16.30;;;;;;5115458;28;20185;-60
2021/03/07 10:14:02;;;;;;;1.52;1.42;;;21.90;16.10;;;;;;5115214;28;20155;-59
2021/03/07 10:16:35;;;;;;;1.40;1.30;;;22.00;15.90;;;;;;5115329;28;20201;-60
2021/03/07 10:19:20;;;;;;;1.95;1.60;;;22.10;15.70;;;;;;5114926;28;20181;-60
2021/03/07 10:21:46;;;;;;;1.60;1.50;;;22.10;15.60;;;;;;5114973;28;20161;-59
2021/03/07 10:24:19;;;;;;;1.42;1.33;;;22.10;15.60;;;;;;5114389;28;20169;-59
2021/03/07 10:26:47;;;;;;;2.28;1.90;;;22.10;15.50;;;;;;5114850;28;20632;-60
2021/03/07 10:29:19;;;;;;;2.28;1.83;;;22.10;15.60;;;;;;5115005;28;20489;-59
2021/03/07 10:32:20;;;;;;;2.25;1.70;;;22.10;15.70;;;;;;5114752;28;20165;-60
2021/03/07 10:34:51;;;;;;;1.58;1.48;;;22.10;16.30;;;;;;5071148;28;20203;-60
2021/03/07 10:37:41;;;;;;;2.10;2.00;;;22.10;15.70;;;;;;5114683;28;20157;-60
2021/03/07 10:40:12;;;;;;;1.55;1.45;;;22.10;15.70;;;;;;5130088;27;20670;-60
2021/03/07 10:42:40;;;;;;;2.47;1.70;;;22.20;15.70;;;;;;5114689;28;20224;-59
2021/03/07 10:45:11;;;;;;;1.90;1.80;;;22.30;15.70;;;;;;5114583;28;20153;-61
2021/03/07 10:47:37;;;;;;;2.55;1.85;;;22.40;15.60;;;;;;5114855;28;20163;-61
2021/03/07 10:50:04;;;;;;;1.70;1.40;;;22.40;15.50;;;;;;5114716;28;20571;-60
2021/03/07 10:52:30;;;;;;;1.70;1.52;;;22.40;15.40;;;;;;5114498;28;20169;-61
2021/03/07 10:54:59;;;;;;;2.03;1.80;;;22.50;15.40;;;;;;5113843;28;20185;-60
2021/03/07 10:57:25;;;;;;;1.95;1.67;;;22.50;15.30;;;;;;5114589;28;20196;-60
2021/03/07 10:59:52;;;;;;;1.90;1.80;;;22.60;15.30;;;;;;5114346;28;20160;-60
2021/03/07 11:02:18;;;;;;;1.42;1.33;;;22.60;15.30;;;;;;5113899;28;20236;-60
2021/03/07 11:04:50;;;;;;;1.92;1.80;;;22.60;15.20;;;;;;5114264;28;20206;-59
2021/03/07 11:07:15;;;;;;;2.03;1.70;;;22.60;15.10;;;;;;5114384;28;20160;-60
2021/03/07 11:09:41;;;;;;;1.63;1.53;;;22.60;15.20;;;;;;5113923;28;20161;-61
2021/03/07 11:12:08;;;;;;;1.80;1.70;;;22.60;15.30;;;;;;5114214;28;20153;-61
2021/03/07 11:14:35;;;;;;;2.03;1.83;;;22.70;15.40;;;;;;5114032;28;20212;-61
2021/03/07 11:17:01;;;;;;;2.13;1.73;;;22.80;15.30;;;;;;5114219;28;20157;-60
2021/03/07 11:19:27;;;;;;;3.20;2.70;;;22.80;15.20;;;;;;5096173;28;20179;-61
2021/03/07 11:21:54;;;;;;;3.80;3.50;;;22.90;15.10;;;;;;5114237;28;20166;-60
2021/03/07 11:24:20;;;;;;;4.90;4.28;;;23.00;15.10;;;;;;5113363;28;20642;-61
2021/03/07 11:26:46;;;;;;;4.90;4.40;;;23.10;15.00;;;;;;5114103;28;20169;-60
2021/03/07 11:29:12;;;;;;;6.50;5.90;;;23.20;14.90;;;;;;5113906;28;20157;-60
2021/03/07 11:31:37;;;;;;;7.10;6.00;;;23.30;14.80;;;;;;5113711;28;20157;-60
2021/03/07 11:34:03;;;;;;;7.90;7.17;;;23.40;14.60;;;;;;5113823;28;20472;-61
2021/03/07 11:36:29;;;;;;;6.22;5.63;;;23.50;14.60;;;;;;5113672;28;20216;-61
2021/03/07 11:38:55;;;;;;;6.53;5.83;;;23.60;14.60;;;;;;5113414;28;20181;-61
2021/03/07 11:41:20;;;;;;;7.37;6.50;;;23.60;14.60;;;;;;5114100;28;20643;-60
2021/03/07 11:43:46;;;;;;;7.30;6.30;;;23.70;14.60;;;;;;5113629;28;20160;-60
2021/03/07 11:46:12;;;;;;;11.23;7.83;;;23.80;14.70;;;;;;5113681;28;20154;-61
2021/03/07 11:48:37;;;;;;;7.43;6.47;;;23.80;14.40;;;;;;5095506;28;20161;-61
2021/03/07 11:51:04;;;;;;;7.70;6.37;;;23.90;14.40;;;;;;5113902;28;20166;-60
2021/03/07 11:53:30;;;;;;;7.17;6.47;;;24.00;14.30;;;;;;5095031;28;20180;-60
2021/03/07 11:55:56;;;;;;;7.00;6.30;;;24.10;14.30;;;;;;5113735;28;20405;-61
2021/03/07 11:58:21;;;;;;;7.90;7.10;;;24.10;14.20;;;;;;5113790;28;20150;-60
2021/03/07 12:00:47;;;;;;;8.00;6.67;;;24.20;14.10;;;;;;5113646;28;20149;-60
2021/03/07 12:03:12;;;;;;;6.90;6.23;;;24.30;14.00;;;;;;5113581;28;20160;-59
2021/03/07 12:05:38;;;;;;;9.33;7.50;;;24.30;14.00;;;;;;5113670;28;20619;-59
2021/03/07 12:08:04;;;;;;;6.80;6.10;;;24.40;13.90;;;;;;5113110;28;20166;-60
2021/03/07 12:10:30;;;;;;;6.93;6.13;;;24.50;13.80;;;;;;5113704;28;20166;-62
2021/03/07 12:12:58;;;;;;;8.73;7.23;;;24.50;13.70;;;;;;5113551;28;20465;-61
2021/03/07 12:15:26;;;;;;;7.47;6.70;;;24.60;13.70;;;;;;5117299;28;20707;-61
2021/03/07 12:17:52;;;;;;;7.43;6.72;;;24.70;13.60;;;;;;5117359;28;20157;-60
2021/03/07 12:20:18;;;;;;;8.43;6.57;;;24.80;13.40;;;;;;5117432;28;20168;-61
2021/03/07 12:22:46;;;;;;;7.63;6.73;;;24.90;13.40;;;;;;5117211;28;20149;-60
2021/03/07 12:25:12;;;;;;;8.00;7.20;;;25.00;13.20;;;;;;5116562;28;20527;-61
2021/03/07 12:27:38;;;;;;;8.17;7.37;;;25.10;13.10;;;;;;5117188;28;20565;-60
2021/03/07 12:30:07;;;;;;;7.87;6.87;;;25.20;12.90;;;;;;5116935;28;20406;-60
2021/03/07 12:32:33;;;;;;;7.40;6.33;;;25.30;12.70;;;;;;5117054;28;20165;-60
2021/03/07 12:35:02;;;;;;;8.43;6.63;;;25.50;12.60;;;;;;5098566;28;20461;-61
2021/03/07 12:37:28;;;;;;;7.87;7.17;;;25.60;12.40;;;;;;5117154;28;20149;-61
2021/03/07 12:39:53;;;;;;;7.90;7.10;;;25.60;12.20;;;;;;5116756;28;20488;-61
2021/03/07 12:42:19;;;;;;;7.67;6.87;;;25.80;11.80;;;;;;5117059;28;20192;-60
2021/03/07 12:44:45;;;;;;;6.47;5.83;;;25.90;11.80;;;;;;5117118;28;20169;-59
2021/03/07 12:47:10;;;;;;;8.07;6.77;;;26.00;11.90;;;;;;5116829;28;20165;-60
2021/03/07 12:49:36;;;;;;;7.33;6.63;;;26.20;12.00;;;;;;5116668;28;20160;-60
2021/03/07 12:52:02;;;;;;;7.90;6.70;;;26.30;11.70;;;;;;5116483;28;20628;-60
2021/03/07 12:54:28;;;;;;;7.77;6.23;;;26.40;11.40;;;;;;5116290;28;20161;-60
2021/03/07 12:56:53;;;;;;;7.20;6.50;;;26.50;11.20;;;;;;5098608;28;20544;-60
2021/03/07 12:59:19;;;;;;;7.97;7.27;;;26.60;11.10;;;;;;5116643;28;20168;-60